This is the latest recevied weather packets stored in our database for station/object VE4GLS. If no packets are shown the sender has not sent any weather packets the latest 1 day(s).
| Time | Temp. | Humidity | Pressure | Rain* | Wind** | Luminosity | Snow |
|---|---|---|---|---|---|---|---|
| 1836274820 | 15° C | 99% | 1012.4 hPa | 0.25 mm | 0.45 m/s, 74° | - | - |
| 1836274400 | 15° C | 99% | 1012.4 hPa | 0.25 mm | 0.89 m/s, 75° | - | - |
| 1836274250 | 15° C | 99% | 1012.4 hPa | 0.25 mm | 0.45 m/s, 74° | - | - |
| 1836273920 | 15° C | 99% | 1012.4 hPa | 0 mm | 0.89 m/s, 72° | - | - |
| 1778060375 | -0.56° C | 81% | 1014 hPa | 0 mm | 3.13 m/s, 303° | - | - |
| 1778059955 | -0.56° C | 81% | 1014 hPa | 0 mm | 3.13 m/s, 291° | - | - |
| 1778059774 | -0.56° C | 81% | 1014 hPa | 0 mm | 2.24 m/s, 303° | - | - |
| 1778059172 | -1.11° C | 82% | 1013.9 hPa | 0 mm | 2.68 m/s, 297° | - | - |
| 1778059054 | -1.11° C | 81% | 1013.9 hPa | 0 mm | 3.58 m/s, 300° | - | - |
| 1778058572 | -1.11° C | 81% | 1013.8 hPa | 0 mm | 3.13 m/s, 295° | - | - |
| 1778058156 | -1.11° C | 81% | 1013.8 hPa | 0 mm | 2.24 m/s, 300° | - | - |
| 1778057974 | -1.11° C | 81% | 1013.8 hPa | 0 mm | 2.68 m/s, 293° | - | - |
| 1778057374 | -1.11° C | 81% | 1013.7 hPa | 0 mm | 4.02 m/s, 296° | - | - |
| 1778057256 | -1.11° C | 82% | 1013.7 hPa | 0 mm | 3.58 m/s, 297° | - | - |
| 1778056773 | -1.67° C | 81% | 1013.7 hPa | 0 mm | 2.24 m/s, 292° | - | - |
| 1778056355 | -1.67° C | 81% | 1013.7 hPa | 0 mm | 2.68 m/s, 277° | - | - |
| 1778056117 | -1.67° C | 81% | 1013.7 hPa | 0 mm | 2.24 m/s, 284° | - | - |
| 1778055517 | -1.67° C | 81% | 1013.7 hPa | 0 mm | 2.24 m/s, 280° | - | - |
| 1778055455 | -1.67° C | 81% | 1013.7 hPa | 0 mm | 2.24 m/s, 285° | - | - |
| 1778055383 | -1.67° C | 81% | 1013.7 hPa | 0 mm | 2.24 m/s, 276° | - | - |
| 1778054783 | -2.22° C | 81% | 1013.8 hPa | 0 mm | 2.24 m/s, 275° | - | - |
| 1778054554 | -2.22° C | 81% | 1013.8 hPa | 0 mm | 2.24 m/s, 278° | - | - |
| 1778054182 | -2.22° C | 81% | 1013.8 hPa | 0 mm | 2.24 m/s, 280° | - | - |
| 1778053654 | -2.22° C | 82% | 1013.8 hPa | 0 mm | 2.24 m/s, 277° | - | - |
| 1778053582 | -2.22° C | 82% | 1013.8 hPa | 0 mm | 2.24 m/s, 279° | - | - |
* Rain latest hour (hover to see other rain measurements)
** Current wind speed in m/s (hover to see current wind gust speed)